Time;durP1;ratioP1;P1;durP2;ratioP2;P2;SDS_P1;SDS_P2;PMS_P1;PMS_P2;Temp;Humidity;BMP_temperature;BMP_pressure;BME280_temperature;BME280_humidity;BME280_pressure;Samples;Min_cycle;Max_cycle;Signal;HPM_P1;HPM_P2
2023/11/21 00:02:01;;;;;;;6.77;3.20;;;6.80;99.90;;;;;;4253565;27;20214;-79
2023/11/21 00:04:07;;;;;;;6.60;3.30;;;6.80;99.90;;;;;;4245087;27;20218;-80
2023/11/21 00:06:09;;;;;;;8.17;3.10;;;6.80;99.90;;;;;;4253113;27;20725;-79
2023/11/21 00:08:10;;;;;;;6.23;3.27;;;6.80;99.90;;;;;;4248130;27;20204;-79
2023/11/21 00:10:14;;;;;;;4.90;3.10;;;6.50;99.90;;;;;;4246845;27;20212;-79
2023/11/21 00:12:16;;;;;;;6.23;3.47;;;6.60;99.90;;;;;;4241300;27;20234;-80
2023/11/21 00:14:17;;;;;;;8.23;3.87;;;6.70;99.90;;;;;;4236499;27;20876;-79
2023/11/21 00:16:19;;;;;;;5.70;3.23;;;6.70;99.90;;;;;;4236034;27;20484;-79
2023/11/21 00:18:22;;;;;;;5.87;3.40;;;6.60;99.90;;;;;;4242038;27;20433;-79
2023/11/21 00:20:25;;;;;;;5.80;3.27;;;6.70;99.90;;;;;;4241326;27;20498;-79
2023/11/21 00:22:30;;;;;;;5.03;3.40;;;6.60;99.90;;;;;;4241090;27;20282;-79
2023/11/21 00:24:32;;;;;;;4.23;3.10;;;6.60;99.90;;;;;;4221766;28;20205;-79
2023/11/21 00:26:36;;;;;;;7.60;3.90;;;6.50;99.90;;;;;;4241752;27;20258;-79
2023/11/21 00:28:38;;;;;;;10.30;3.40;;;6.50;99.90;;;;;;4246212;27;20464;-79
2023/11/21 00:30:40;;;;;;;7.80;3.23;;;6.40;99.90;;;;;;4241635;27;20937;-80
2023/11/21 00:32:43;;;;;;;8.37;3.57;;;6.50;99.90;;;;;;4234071;27;20220;-80
2023/11/21 00:34:44;;;;;;;7.63;3.83;;;6.40;99.90;;;;;;4238500;27;20222;-79
2023/11/21 00:36:47;;;;;;;8.73;4.33;;;6.40;99.90;;;;;;4242487;27;21176;-79
2023/11/21 00:38:49;;;;;;;6.23;3.93;;;6.40;99.90;;;;;;4247486;27;20653;-79
2023/11/21 00:40:51;;;;;;;11.77;4.83;;;6.40;99.90;;;;;;4239914;27;20212;-79
2023/11/21 00:42:53;;;;;;;10.40;4.17;;;6.30;99.90;;;;;;4242017;27;20437;-79
2023/11/21 00:44:54;;;;;;;8.60;4.03;;;6.40;99.90;;;;;;4240124;27;20196;-79
2023/11/21 00:46:56;;;;;;;13.73;4.43;;;6.30;99.90;;;;;;4237358;27;20537;-79
2023/11/21 00:48:58;;;;;;;8.97;3.67;;;6.30;99.90;;;;;;4223360;27;20230;-79
2023/11/21 00:51:00;;;;;;;10.33;4.20;;;6.30;99.90;;;;;;4238641;27;20246;-79
2023/11/21 00:53:04;;;;;;;9.47;4.03;;;6.30;99.90;;;;;;4238615;27;20482;-79
2023/11/21 00:55:07;;;;;;;9.57;3.80;;;6.20;99.90;;;;;;4242489;27;20215;-79
2023/11/21 00:57:11;;;;;;;5.80;3.47;;;6.20;99.90;;;;;;4220894;28;20540;-80
2023/11/21 00:59:13;;;;;;;9.30;3.80;;;6.20;99.90;;;;;;4239696;27;20208;-79
2023/11/21 01:01:15;;;;;;;8.20;3.90;;;6.20;99.90;;;;;;4237885;27;20628;-79
2023/11/21 01:03:17;;;;;;;13.60;4.63;;;6.20;99.90;;;;;;4243926;27;20204;-79
2023/11/21 01:05:19;;;;;;;8.33;4.03;;;6.20;99.90;;;;;;4240921;27;20212;-80
2023/11/21 01:07:22;;;;;;;5.80;3.73;;;6.20;99.90;;;;;;4243569;27;20469;-80
2023/11/21 01:09:25;;;;;;;7.17;3.80;;;6.20;99.90;;;;;;4242446;27;20860;-79
2023/11/21 01:11:27;;;;;;;8.80;4.20;;;6.20;99.90;;;;;;4223605;27;20475;-80
2023/11/21 01:13:29;;;;;;;5.73;3.63;;;6.20;99.90;;;;;;4244918;27;20224;-79
2023/11/21 01:15:30;;;;;;;5.83;4.23;;;6.20;99.90;;;;;;4251059;27;20200;-80
2023/11/21 01:17:34;;;;;;;7.43;3.80;;;6.50;99.90;;;;;;4243687;27;20461;-80
2023/11/21 01:19:35;;;;;;;6.80;3.97;;;6.20;99.90;;;;;;4248200;27;20210;-79
2023/11/21 01:21:37;;;;;;;9.50;4.03;;;6.20;99.90;;;;;;4246612;27;20449;-79
2023/11/21 01:23:39;;;;;;;10.27;4.90;;;6.20;99.90;;;;;;4242270;27;20442;-79
2023/11/21 01:25:43;;;;;;;6.40;3.83;;;6.30;99.90;;;;;;4242317;27;20450;-80
2023/11/21 01:27:45;;;;;;;6.93;4.20;;;6.20;99.90;;;;;;4237983;27;20540;-81
2023/11/21 01:29:47;;;;;;;6.07;3.43;;;6.30;99.90;;;;;;4247746;27;20215;-80
2023/11/21 01:31:48;;;;;;;7.50;4.17;;;6.30;99.90;;;;;;4248847;27;20483;-80
2023/11/21 01:33:50;;;;;;;6.73;3.77;;;6.30;99.90;;;;;;4248874;27;20353;-79
2023/11/21 01:35:54;;;;;;;7.27;3.63;;;6.30;99.90;;;;;;4250408;27;20211;-79
2023/11/21 01:37:56;;;;;;;9.53;3.57;;;6.20;99.90;;;;;;4252729;27;20231;-79
2023/11/21 01:39:58;;;;;;;4.77;3.40;;;6.30;99.90;;;;;;4252857;27;20214;-79
2023/11/21 01:42:02;;;;;;;6.97;4.23;;;6.30;99.90;;;;;;4251220;27;20448;-79
2023/11/21 01:44:07;;;;;;;6.53;3.90;;;6.40;99.90;;;;;;4245216;27;20208;-79
2023/11/21 01:46:10;;;;;;;11.80;4.43;;;6.30;99.90;;;;;;4243515;27;20211;-80
2023/11/21 01:48:13;;;;;;;8.80;4.30;;;6.40;99.90;;;;;;4241657;27;20333;-79
2023/11/21 01:50:17;;;;;;;9.60;4.23;;;6.40;99.90;;;;;;4251032;27;20747;-79
2023/11/21 01:52:19;;;;;;;8.37;4.00;;;6.40;99.90;;;;;;4250758;27;20211;-79
2023/11/21 01:54:21;;;;;;;8.20;3.47;;;6.40;99.90;;;;;;4244889;27;20541;-78
2023/11/21 01:56:23;;;;;;;6.43;3.67;;;6.40;99.90;;;;;;4243945;27;20759;-80
2023/11/21 01:58:26;;;;;;;9.50;4.20;;;6.50;99.90;;;;;;4239482;27;20208;-79
2023/11/21 02:00:29;;;;;;;8.47;4.03;;;6.40;99.90;;;;;;4237798;27;20203;-79
2023/11/21 02:02:30;;;;;;;8.67;3.40;;;6.40;99.90;;;;;;4238688;27;20288;-79
2023/11/21 02:04:33;;;;;;;6.63;3.03;;;6.40;99.90;;;;;;4246595;27;20238;-80
2023/11/21 02:06:35;;;;;;;5.50;3.40;;;6.10;99.90;;;;;;4246921;27;20227;-79
2023/11/21 02:08:37;;;;;;;6.57;3.77;;;6.40;99.90;;;;;;4240814;27;20745;-79
2023/11/21 02:10:40;;;;;;;11.13;4.60;;;6.50;99.90;;;;;;4244392;27;20295;-79
2023/11/21 02:12:43;;;;;;;8.23;4.00;;;6.40;99.90;;;;;;4233749;27;20613;-80
2023/11/21 02:14:45;;;;;;;8.73;4.37;;;6.50;99.90;;;;;;4243067;27;20440;-79
2023/11/21 02:16:49;;;;;;;8.20;4.00;;;6.50;99.90;;;;;;4241253;27;20229;-79
2023/11/21 02:18:53;;;;;;;9.67;4.47;;;6.50;99.90;;;;;;4245746;27;20454;-79
2023/11/21 02:20:56;;;;;;;9.00;4.43;;;6.50;99.90;;;;;;4241019;27;20464;-79
2023/11/21 02:22:59;;;;;;;8.47;4.00;;;6.50;99.90;;;;;;4236583;27;20204;-79
2023/11/21 02:25:01;;;;;;;8.33;4.27;;;6.50;99.90;;;;;;4236976;27;20200;-79
2023/11/21 02:27:06;;;;;;;9.07;4.60;;;6.50;99.90;;;;;;4241440;27;20228;-79
2023/11/21 02:29:10;;;;;;;6.63;4.30;;;6.50;99.90;;;;;;4239701;28;20211;-79
2023/11/21 02:31:12;;;;;;;7.67;4.17;;;6.50;99.90;;;;;;4236189;27;20216;-79
2023/11/21 02:33:14;;;;;;;8.90;4.50;;;6.50;99.90;;;;;;4236581;28;20767;-79
2023/11/21 02:35:15;;;;;;;11.07;5.17;;;6.80;99.90;;;;;;4221598;28;20627;-79
2023/11/21 02:37:17;;;;;;;15.80;4.97;;;6.50;99.90;;;;;;4236628;28;20216;-79
2023/11/21 02:39:22;;;;;;;11.10;5.23;;;6.60;99.90;;;;;;4240869;27;20211;-79
2023/11/21 02:41:24;;;;;;;7.63;4.57;;;6.50;99.90;;;;;;4242158;27;20200;-79
2023/11/21 02:43:26;;;;;;;11.13;4.57;;;6.50;99.90;;;;;;4240848;27;20241;-79
2023/11/21 02:45:27;;;;;;;11.67;4.20;;;6.50;99.90;;;;;;4244974;27;20201;-79
2023/11/21 02:47:29;;;;;;;13.57;4.63;;;6.50;99.90;;;;;;4242596;27;20235;-79
2023/11/21 02:49:31;;;;;;;12.10;3.80;;;6.50;99.90;;;;;;4223289;27;20201;-80
2023/11/21 02:51:32;;;;;;;9.47;4.23;;;6.50;99.90;;;;;;4242893;27;20207;-79
2023/11/21 02:53:35;;;;;;;10.10;3.57;;;6.40;99.90;;;;;;4222210;28;20259;-79
2023/11/21 02:55:38;;;;;;;7.23;4.23;;;6.40;99.90;;;;;;4244418;27;20211;-79
2023/11/21 02:57:39;;;;;;;13.50;4.97;;;6.40;99.90;;;;;;4242370;27;21110;-79
2023/11/21 02:59:41;;;;;;;9.10;4.57;;;6.40;99.90;;;;;;4241530;27;20192;-79
2023/11/21 03:01:43;;;;;;;12.80;4.97;;;6.30;99.90;;;;;;4243700;27;20686;-79
2023/11/21 03:03:45;;;;;;;10.47;4.87;;;6.30;99.90;;;;;;4240518;27;20213;-80
2023/11/21 03:05:47;;;;;;;9.70;4.73;;;6.30;99.90;;;;;;4245554;27;20207;-80
2023/11/21 03:07:48;;;;;;;8.90;4.07;;;6.30;99.90;;;;;;4247647;27;20694;-80
2023/11/21 03:09:50;;;;;;;9.77;3.97;;;6.30;99.90;;;;;;4249182;27;20267;-79
2023/11/21 03:11:53;;;;;;;10.80;4.80;;;6.30;99.90;;;;;;4255398;27;20865;-80
2023/11/21 03:13:59;;;;;;;6.50;3.80;;;6.30;99.90;;;;;;4247743;27;20922;-79
2023/11/21 03:16:00;;;;;;;8.70;4.10;;;6.30;99.90;;;;;;4247693;27;20291;-79
2023/11/21 03:18:02;;;;;;;7.07;4.20;;;6.30;99.90;;;;;;4250294;27;20258;-79
2023/11/21 03:20:05;;;;;;;10.37;4.17;;;6.30;99.90;;;;;;4249050;27;20272;-80
2023/11/21 03:22:08;;;;;;;12.23;4.60;;;6.30;99.90;;;;;;4251005;27;20859;-79
2023/11/21 03:24:10;;;;;;;9.70;4.10;;;6.30;99.90;;;;;;4246973;27;20565;-80
2023/11/21 03:26:12;;;;;;;14.10;4.70;;;6.30;99.90;;;;;;4247409;27;20211;-79
2023/11/21 03:28:16;;;;;;;10.77;4.67;;;6.30;99.90;;;;;;4238613;27;20602;-79
2023/11/21 03:30:18;;;;;;;10.73;4.37;;;6.40;99.90;;;;;;4244141;27;20272;-79
2023/11/21 03:32:20;;;;;;;8.20;3.90;;;6.40;99.90;;;;;;4239355;27;20627;-80
2023/11/21 03:34:25;;;;;;;7.87;4.10;;;6.40;99.90;;;;;;4244312;27;20215;-79
2023/11/21 03:36:30;;;;;;;8.73;4.20;;;6.40;99.90;;;;;;4245622;27;20220;-79
2023/11/21 03:38:32;;;;;;;9.13;5.33;;;6.40;99.90;;;;;;4243727;27;20261;-79
2023/11/21 03:40:34;;;;;;;9.03;4.57;;;6.40;99.90;;;;;;4239550;27;20753;-79
2023/11/21 03:42:35;;;;;;;10.57;4.50;;;6.40;99.90;;;;;;4241364;27;20450;-79
2023/11/21 03:44:38;;;;;;;8.33;4.53;;;6.40;99.90;;;;;;4248231;27;20805;-79
2023/11/21 03:46:40;;;;;;;9.60;4.50;;;6.50;99.90;;;;;;4241279;27;20280;-79
2023/11/21 03:48:43;;;;;;;7.40;4.10;;;6.50;99.90;;;;;;4224815;27;20207;-80
2023/11/21 03:50:45;;;;;;;14.93;5.50;;;6.50;99.90;;;;;;4244297;27;20818;-79
2023/11/21 03:52:46;;;;;;;8.53;4.00;;;6.50;99.90;;;;;;4226410;27;20219;-79
2023/11/21 03:54:48;;;;;;;8.37;4.00;;;6.40;99.90;;;;;;4223119;27;20795;-79
2023/11/21 03:56:50;;;;;;;11.53;4.43;;;6.50;99.90;;;;;;4240752;27;20219;-79
2023/11/21 03:58:52;;;;;;;12.00;3.97;;;6.50;99.90;;;;;;4242567;27;20269;-78
2023/11/21 04:00:55;;;;;;;12.57;4.03;;;6.50;99.90;;;;;;4249658;27;20212;-79
2023/11/21 04:02:57;;;;;;;7.13;3.70;;;6.50;99.90;;;;;;4246678;27;20207;-79
2023/11/21 04:04:58;;;;;;;7.33;3.57;;;6.50;99.90;;;;;;4248306;27;20625;-79
2023/11/21 04:07:01;;;;;;;9.93;4.37;;;6.50;99.90;;;;;;4253695;27;20230;-79
2023/11/21 04:09:04;;;;;;;8.80;3.80;;;6.50;99.90;;;;;;4256359;27;20214;-79
2023/11/21 04:11:06;;;;;;;8.27;3.30;;;6.50;99.90;;;;;;4252238;27;20196;-79
2023/11/21 04:13:10;;;;;;;8.70;3.80;;;6.50;99.90;;;;;;4253499;27;20245;-81
2023/11/21 04:15:13;;;;;;;8.73;3.67;;;6.50;99.90;;;;;;4255889;27;20184;-79
2023/11/21 04:17:18;;;;;;;8.50;3.30;;;6.60;99.90;;;;;;4256483;27;20220;-79
2023/11/21 04:19:20;;;;;;;11.47;4.13;;;6.50;99.90;;;;;;4247743;27;20540;-80
2023/11/21 04:21:22;;;;;;;7.90;3.10;;;6.50;99.90;;;;;;4246048;27;20215;-80
2023/11/21 04:23:24;;;;;;;10.43;3.73;;;6.60;99.90;;;;;;4238968;27;20223;-79
2023/11/21 04:25:26;;;;;;;9.10;3.70;;;6.50;99.90;;;;;;4241502;27;20205;-80
2023/11/21 04:27:28;;;;;;;8.70;3.33;;;6.50;99.90;;;;;;4236192;27;20749;-80
2023/11/21 04:29:30;;;;;;;7.63;3.13;;;6.50;99.90;;;;;;4238264;27;20193;-80
2023/11/21 04:31:32;;;;;;;7.40;3.20;;;6.50;99.90;;;;;;4235426;27;20502;-80
2023/11/21 04:33:36;;;;;;;9.70;3.20;;;6.80;99.90;;;;;;4227602;27;20251;-80
2023/11/21 04:35:37;;;;;;;13.33;3.80;;;6.60;99.90;;;;;;4234589;27;20218;-80
2023/11/21 04:37:39;;;;;;;12.20;3.47;;;6.60;99.90;;;;;;4217030;28;20332;-80
2023/11/21 04:39:40;;;;;;;10.67;4.03;;;6.60;99.90;;;;;;4223156;27;20570;-80
2023/11/21 04:41:42;;;;;;;10.97;3.90;;;6.60;99.90;;;;;;4254368;27;20220;-80
2023/11/21 04:43:44;;;;;;;8.43;3.20;;;6.60;99.90;;;;;;4239319;27;20216;-80
2023/11/21 04:45:46;;;;;;;5.93;3.30;;;6.60;99.90;;;;;;4238992;27;20215;-79
2023/11/21 04:47:48;;;;;;;8.83;3.57;;;6.60;99.90;;;;;;4223272;28;20236;-80
2023/11/21 04:49:51;;;;;;;9.77;3.53;;;6.70;99.90;;;;;;4243779;27;20259;-80
2023/11/21 04:51:53;;;;;;;7.43;3.40;;;6.70;99.90;;;;;;4239841;27;20242;-80
2023/11/21 04:53:55;;;;;;;6.80;3.60;;;6.60;99.90;;;;;;4238489;27;20591;-80
2023/11/21 04:55:57;;;;;;;10.33;3.37;;;6.70;99.90;;;;;;4244411;27;20226;-80
2023/11/21 04:57:58;;;;;;;7.70;3.43;;;6.70;99.90;;;;;;4247485;27;20307;-80
2023/11/21 05:00:00;;;;;;;7.03;3.43;;;6.80;99.90;;;;;;4242381;27;20210;-80
2023/11/21 05:02:02;;;;;;;8.37;3.10;;;6.70;99.90;;;;;;4227675;28;20734;-80
2023/11/21 05:04:05;;;;;;;13.60;3.77;;;6.70;99.90;;;;;;4237390;27;20204;-80
2023/11/21 05:06:11;;;;;;;8.40;3.50;;;6.70;99.90;;;;;;4238713;27;20208;-80
2023/11/21 05:08:13;;;;;;;13.07;3.30;;;6.70;99.90;;;;;;4242626;27;20267;-79
2023/11/21 05:10:15;;;;;;;6.97;3.50;;;6.70;99.90;;;;;;4237379;27;20208;-79
2023/11/21 05:12:17;;;;;;;8.07;3.67;;;6.70;99.90;;;;;;4233776;27;20287;-80
2023/11/21 05:14:19;;;;;;;13.53;3.80;;;6.80;99.90;;;;;;4236703;27;20219;-80
2023/11/21 05:16:21;;;;;;;7.93;3.63;;;6.80;99.90;;;;;;4238551;27;20485;-80
2023/11/21 05:18:26;;;;;;;9.53;4.13;;;6.70;99.90;;;;;;4242011;27;20253;-80
2023/11/21 05:20:32;;;;;;;14.33;4.87;;;6.70;99.90;;;;;;4241633;27;20641;-80
2023/11/21 05:22:35;;;;;;;9.30;3.63;;;6.70;99.90;;;;;;4233962;27;20212;-80
2023/11/21 05:24:40;;;;;;;11.60;4.33;;;6.80;99.90;;;;;;4247952;27;20859;-79
2023/11/21 05:26:41;;;;;;;12.20;5.60;;;7.00;99.90;;;;;;4247086;27;20280;-80
2023/11/21 05:28:43;;;;;;;20.13;8.90;;;6.80;99.90;;;;;;4245029;27;20707;-79
2023/11/21 05:30:45;;;;;;;24.07;9.63;;;6.80;99.90;;;;;;4241774;27;20218;-79
2023/11/21 05:32:46;;;;;;;21.07;9.63;;;6.80;99.90;;;;;;4248265;27;20203;-79
2023/11/21 05:34:49;;;;;;;23.57;8.97;;;6.80;99.90;;;;;;4224356;27;20531;-79
2023/11/21 05:36:54;;;;;;;34.30;10.87;;;6.80;99.90;;;;;;4236154;27;20228;-79
2023/11/21 05:38:57;;;;;;;22.60;8.53;;;6.80;99.90;;;;;;4236659;27;20667;-79
2023/11/21 05:40:59;;;;;;;25.00;8.97;;;6.80;99.90;;;;;;4241595;27;20295;-79
2023/11/21 05:43:01;;;;;;;22.20;9.47;;;6.80;99.90;;;;;;4237726;27;20215;-80
2023/11/21 05:45:09;;;;;;;27.33;12.30;;;6.80;99.90;;;;;;4237205;27;20200;-79
2023/11/21 05:47:11;;;;;;;40.30;15.13;;;6.80;99.90;;;;;;4241053;27;20230;-79
2023/11/21 05:49:13;;;;;;;34.73;14.53;;;6.70;99.90;;;;;;4234132;27;20220;-80
2023/11/21 05:51:15;;;;;;;26.63;12.50;;;6.80;99.90;;;;;;4238343;27;20261;-80
2023/11/21 05:53:17;;;;;;;24.43;11.83;;;6.80;99.90;;;;;;4239464;27;20203;-79
2023/11/21 05:55:21;;;;;;;21.17;9.77;;;6.80;99.90;;;;;;4217749;27;20691;-80
2023/11/21 05:57:23;;;;;;;24.67;9.87;;;6.80;99.90;;;;;;4235325;27;20590;-80
2023/11/21 05:59:25;;;;;;;28.17;10.90;;;6.80;99.90;;;;;;4237224;27;20223;-79
2023/11/21 06:01:28;;;;;;;33.33;13.60;;;6.80;99.90;;;;;;4217361;28;20232;-79
2023/11/21 06:03:29;;;;;;;29.17;13.90;;;6.80;99.90;;;;;;4238299;27;20250;-79
2023/11/21 06:05:32;;;;;;;21.77;9.23;;;6.80;99.90;;;;;;4241579;27;20212;-79
2023/11/21 06:07:34;;;;;;;25.17;10.80;;;6.80;99.90;;;;;;4232790;27;20308;-79
2023/11/21 06:09:37;;;;;;;28.20;12.60;;;6.80;99.90;;;;;;4239898;27;20287;-79
2023/11/21 06:11:40;;;;;;;46.93;15.17;;;6.70;99.90;;;;;;4221489;28;20736;-79
2023/11/21 06:13:42;;;;;;;52.93;18.87;;;6.70;99.90;;;;;;4235178;27;20653;-79
2023/11/21 06:15:47;;;;;;;43.30;16.77;;;6.70;99.90;;;;;;4231356;27;20291;-79
2023/11/21 06:17:51;;;;;;;45.43;18.60;;;6.70;99.90;;;;;;4232706;27;20224;-79
2023/11/21 06:19:53;;;;;;;52.63;20.00;;;6.70;99.90;;;;;;4240939;27;20216;-78
2023/11/21 06:21:55;;;;;;;33.07;15.50;;;6.70;99.90;;;;;;4236190;27;20212;-79
2023/11/21 06:23:57;;;;;;;25.50;10.60;;;6.70;99.90;;;;;;4246635;27;20449;-79
2023/11/21 06:25:59;;;;;;;22.60;9.40;;;6.70;99.90;;;;;;4238565;27;20574;-79
2023/11/21 06:28:03;;;;;;;19.43;9.50;;;6.70;99.90;;;;;;4237855;27;20235;-79
2023/11/21 06:30:06;;;;;;;24.60;9.90;;;6.70;99.90;;;;;;4237371;28;20459;-78
2023/11/21 06:32:08;;;;;;;20.77;10.00;;;6.70;99.90;;;;;;4240913;27;20438;-78
2023/11/21 06:34:10;;;;;;;20.07;9.47;;;6.70;99.90;;;;;;4236286;27;20273;-78
2023/11/21 06:36:11;;;;;;;18.23;9.07;;;6.70;99.90;;;;;;4240570;27;20446;-78
2023/11/21 06:38:13;;;;;;;33.73;10.03;;;6.70;99.90;;;;;;4245322;27;20196;-78
2023/11/21 06:40:15;;;;;;;25.97;9.90;;;6.70;99.90;;;;;;4239480;27;20199;-75
2023/11/21 06:42:19;;;;;;;26.67;9.50;;;6.70;99.90;;;;;;4235567;27;20228;-79
2023/11/21 06:44:23;;;;;;;34.10;11.43;;;6.70;99.90;;;;;;4231138;28;20941;-81
2023/11/21 06:46:25;;;;;;;25.50;9.30;;;6.70;99.90;;;;;;4238134;27;20230;-79
2023/11/21 06:48:27;;;;;;;30.27;11.80;;;6.80;99.90;;;;;;4238049;27;20200;-83
2023/11/21 06:50:29;;;;;;;25.97;10.10;;;6.80;99.90;;;;;;4241295;27;20275;-80
2023/11/21 06:52:31;;;;;;;31.17;9.43;;;6.70;99.90;;;;;;4224442;28;20627;-84
2023/11/21 06:54:33;;;;;;;27.43;9.23;;;6.80;99.90;;;;;;4239529;27;20268;-81
2023/11/21 06:56:35;;;;;;;23.73;9.53;;;6.80;99.90;;;;;;4236718;27;20466;-83
2023/11/21 06:58:37;;;;;;;32.67;10.73;;;6.70;99.90;;;;;;4244947;27;20445;-83
2023/11/21 07:00:45;;;;;;;29.73;10.03;;;6.80;99.90;;;;;;4223967;28;20702;-83
2023/11/21 07:02:47;;;;;;;31.73;10.50;;;6.80;99.90;;;;;;4237675;27;21111;-83
2023/11/21 07:04:49;;;;;;;24.33;9.63;;;6.80;99.90;;;;;;4236432;27;20988;-83
2023/11/21 07:06:51;;;;;;;27.87;9.67;;;6.80;99.90;;;;;;4233457;27;20264;-82
2023/11/21 07:08:52;;;;;;;25.43;9.97;;;6.80;99.90;;;;;;4239563;27;20647;-82
2023/11/21 07:10:54;;;;;;;23.23;9.37;;;6.80;99.90;;;;;;4242728;28;20502;-82
2023/11/21 07:12:56;;;;;;;20.87;9.73;;;6.70;99.90;;;;;;4243536;27;20612;-82
2023/11/21 07:14:58;;;;;;;28.27;10.30;;;6.80;99.90;;;;;;4244309;28;20477;-82
2023/11/21 07:17:02;;;;;;;24.73;10.53;;;6.80;99.90;;;;;;4240429;28;20268;-84
2023/11/21 07:19:05;;;;;;;23.97;10.57;;;6.90;99.90;;;;;;4236279;27;20212;-83
2023/11/21 07:21:08;;;;;;;24.57;9.60;;;6.90;99.90;;;;;;4234501;27;20291;-81
2023/11/21 07:23:12;;;;;;;27.20;11.10;;;6.80;99.90;;;;;;4235960;27;20792;-83
2023/11/21 07:25:14;;;;;;;31.50;11.83;;;6.90;99.90;;;;;;4242664;27;20442;-83
2023/11/21 07:27:15;;;;;;;25.90;10.83;;;6.90;99.90;;;;;;4241186;27;20227;-83
2023/11/21 07:29:17;;;;;;;34.83;13.43;;;6.90;99.90;;;;;;4241503;27;20204;-83
2023/11/21 07:31:19;;;;;;;45.63;15.63;;;6.90;99.90;;;;;;4238912;27;20269;-83
2023/11/21 07:33:22;;;;;;;44.03;15.70;;;7.10;99.90;;;;;;4240580;27;20298;-83
2023/11/21 07:35:24;;;;;;;37.90;16.13;;;7.40;99.90;;;;;;4239427;27;20212;-83
2023/11/21 07:37:26;;;;;;;42.93;16.13;;;7.00;99.90;;;;;;4235153;27;20220;-84
2023/11/21 07:39:28;;;;;;;41.63;14.77;;;7.00;99.90;;;;;;4220544;28;20699;-83
2023/11/21 07:41:30;;;;;;;34.73;15.37;;;7.00;99.90;;;;;;4243596;27;20204;-83
2023/11/21 07:43:34;;;;;;;36.80;15.53;;;7.00;99.90;;;;;;4239174;27;20787;-84
2023/11/21 07:45:36;;;;;;;48.50;17.43;;;7.00;99.90;;;;;;4248763;27;20297;-83
2023/11/21 07:47:38;;;;;;;41.03;16.23;;;7.10;99.90;;;;;;4236439;27;20220;-83
2023/11/21 07:49:43;;;;;;;42.60;16.63;;;7.10;99.90;;;;;;4242409;27;20201;-83
2023/11/21 07:51:45;;;;;;;42.07;15.77;;;7.10;99.90;;;;;;4246667;27;20199;-83
2023/11/21 07:53:47;;;;;;;37.97;15.30;;;7.10;99.90;;;;;;4244741;27;20208;-83
2023/11/21 07:55:48;;;;;;;32.30;14.30;;;7.10;99.90;;;;;;4245508;27;20241;-83
2023/11/21 07:57:50;;;;;;;32.70;13.97;;;7.50;99.90;;;;;;4253547;27;20735;-83
2023/11/21 07:59:53;;;;;;;32.33;13.73;;;7.20;99.90;;;;;;4250792;27;20204;-84
2023/11/21 08:01:55;;;;;;;29.47;13.30;;;7.20;99.90;;;;;;4250695;27;20207;-83
2023/11/21 08:04:01;;;;;;;26.07;12.53;;;7.20;99.90;;;;;;4237814;27;20703;-81
2023/11/21 08:06:05;;;;;;;31.07;13.83;;;7.20;99.90;;;;;;4237451;27;20216;-81
2023/11/21 08:08:07;;;;;;;31.67;13.07;;;7.20;99.90;;;;;;4241370;27;20270;-81
2023/11/21 08:10:10;;;;;;;30.60;13.53;;;7.30;99.90;;;;;;4239954;27;20229;-81
2023/11/21 08:12:12;;;;;;;25.53;12.60;;;7.20;99.90;;;;;;4225911;27;20678;-81
2023/11/21 08:14:15;;;;;;;31.53;14.23;;;7.20;99.90;;;;;;4242217;27;20200;-81
2023/11/21 08:16:17;;;;;;;30.13;13.70;;;7.20;99.90;;;;;;4244014;27;20232;-81
2023/11/21 08:18:19;;;;;;;30.47;13.30;;;7.30;99.90;;;;;;4242603;27;20203;-82
2023/11/21 08:20:22;;;;;;;29.03;13.30;;;7.30;99.90;;;;;;4239376;27;20678;-82
2023/11/21 08:22:25;;;;;;;30.23;12.37;;;7.30;99.90;;;;;;4223216;28;20308;-83
2023/11/21 08:24:27;;;;;;;30.03;12.53;;;7.30;99.90;;;;;;4230885;27;20197;-82
2023/11/21 08:26:29;;;;;;;28.17;12.13;;;7.30;99.90;;;;;;4242337;27;20215;-82
2023/11/21 08:28:31;;;;;;;27.83;12.27;;;7.30;99.90;;;;;;4240186;27;20660;-82
2023/11/21 08:30:34;;;;;;;25.90;10.80;;;7.30;99.90;;;;;;4245579;27;20283;-82
2023/11/21 08:32:36;;;;;;;24.00;10.60;;;7.30;99.90;;;;;;4236421;27;20202;-82
2023/11/21 08:34:39;;;;;;;24.90;11.33;;;7.30;99.90;;;;;;4236333;27;20224;-82
2023/11/21 08:36:43;;;;;;;21.40;10.00;;;7.40;99.90;;;;;;4242276;27;20227;-79
2023/11/21 08:38:46;;;;;;;24.50;10.10;;;7.40;99.90;;;;;;4236053;27;20239;-81
2023/11/21 08:40:48;;;;;;;20.77;10.23;;;7.40;99.90;;;;;;4234425;27;20206;-79
2023/11/21 08:42:52;;;;;;;24.07;10.13;;;7.40;99.90;;;;;;4239783;27;20300;-81
2023/11/21 08:44:54;;;;;;;23.40;10.23;;;7.30;99.90;;;;;;4236751;27;20194;-79
2023/11/21 08:46:56;;;;;;;18.13;9.10;;;7.40;99.90;;;;;;4240284;27;20272;-79
2023/11/21 08:48:57;;;;;;;17.77;8.97;;;7.30;99.90;;;;;;4241486;27;20212;-80
2023/11/21 08:50:59;;;;;;;15.63;8.03;;;7.30;99.90;;;;;;4233072;27;20314;-82
2023/11/21 08:53:01;;;;;;;17.80;8.43;;;7.30;99.90;;;;;;4237570;27;20232;-80
2023/11/21 08:55:07;;;;;;;13.83;7.17;;;7.30;99.90;;;;;;4236056;27;20224;-83
2023/11/21 08:57:09;;;;;;;16.70;8.13;;;7.30;99.90;;;;;;4242354;27;20632;-82
2023/11/21 08:59:14;;;;;;;18.93;8.90;;;7.30;99.90;;;;;;4244338;27;20240;-82
2023/11/21 09:01:15;;;;;;;18.10;8.40;;;7.30;99.90;;;;;;4239285;27;20240;-82
2023/11/21 09:03:17;;;;;;;16.23;8.20;;;7.30;99.90;;;;;;4237158;27;20290;-82
2023/11/21 09:05:20;;;;;;;17.80;8.30;;;7.30;99.90;;;;;;4243862;27;20201;-82
2023/11/21 09:07:21;;;;;;;19.60;8.43;;;7.30;99.90;;;;;;4240540;27;20734;-85
2023/11/21 09:09:24;;;;;;;19.63;9.10;;;7.30;99.90;;;;;;4236410;27;20222;-84
2023/11/21 09:11:33;;;;;;;16.60;8.13;;;7.30;99.90;;;;;;4237758;27;20201;-85
2023/11/21 09:13:35;;;;;;;16.57;8.03;;;7.80;99.90;;;;;;4248007;27;20763;-83
2023/11/21 09:15:37;;;;;;;16.07;8.50;;;7.30;99.90;;;;;;4234979;27;20272;-84
2023/11/21 09:17:43;;;;;;;20.37;9.53;;;7.50;99.90;;;;;;4238988;27;20220;-83
2023/11/21 09:19:47;;;;;;;17.90;8.90;;;7.30;99.90;;;;;;4219683;28;20216;-83
2023/11/21 09:21:49;;;;;;;18.37;9.37;;;7.30;99.90;;;;;;4227600;27;20213;-83
2023/11/21 09:23:51;;;;;;;19.23;9.63;;;7.30;99.90;;;;;;4238125;27;20213;-83
2023/11/21 09:25:56;;;;;;;23.67;10.10;;;7.30;99.90;;;;;;4237356;27;20215;-83
2023/11/21 09:28:00;;;;;;;21.50;9.70;;;7.30;99.90;;;;;;4237355;27;20726;-83
2023/11/21 09:30:01;;;;;;;21.83;10.33;;;7.30;99.90;;;;;;4237155;27;20209;-82
2023/11/21 09:32:04;;;;;;;23.03;9.70;;;7.30;99.90;;;;;;4240685;27;20211;-80
2023/11/21 09:34:08;;;;;;;20.67;9.37;;;7.30;99.90;;;;;;4250992;27;20208;-80
2023/11/21 09:36:13;;;;;;;20.83;9.47;;;7.30;99.90;;;;;;4246274;27;20225;-81
2023/11/21 09:38:15;;;;;;;16.90;8.53;;;7.30;99.90;;;;;;4237398;27;20277;-83
2023/11/21 09:40:22;;;;;;;22.80;8.93;;;7.30;99.90;;;;;;4243444;27;20200;-83
2023/11/21 09:42:28;;;;;;;19.10;8.53;;;7.40;99.90;;;;;;4244300;27;20385;-85
2023/11/21 09:44:42;;;;;;;12.87;7.03;;;7.30;99.90;;;;;;4239474;27;20588;-81
2023/11/21 09:46:45;;;;;;;15.90;7.73;;;7.40;99.90;;;;;;4245273;27;20319;-81
2023/11/21 09:48:51;;;;;;;14.33;7.13;;;7.00;99.90;;;;;;4237211;27;20742;-80
2023/11/21 09:50:55;;;;;;;15.37;6.60;;;7.40;99.90;;;;;;4245220;27;20585;-80
2023/11/21 09:53:04;;;;;;;12.43;6.73;;;7.40;99.90;;;;;;4237812;27;20200;-81
2023/11/21 09:55:08;;;;;;;13.97;6.20;;;7.40;99.90;;;;;;4240779;27;20277;-80
2023/11/21 09:57:10;;;;;;;13.37;5.67;;;7.40;99.90;;;;;;4239228;27;20256;-80
2023/11/21 09:59:15;;;;;;;13.07;5.90;;;7.40;99.90;;;;;;4232715;27;20269;-80
2023/11/21 10:01:21;;;;;;;13.13;6.10;;;7.30;99.90;;;;;;4221780;28;20217;-81
2023/11/21 10:03:24;;;;;;;11.17;5.33;;;7.30;99.90;;;;;;4238571;27;20253;-82
2023/11/21 10:05:25;;;;;;;11.37;5.40;;;7.30;99.90;;;;;;4240993;27;20696;-82
2023/11/21 10:07:29;;;;;;;13.27;6.10;;;7.30;99.90;;;;;;4216547;28;20214;-81
2023/11/21 10:09:32;;;;;;;11.13;5.80;;;7.20;99.90;;;;;;4233771;27;20216;-82
2023/11/21 10:11:34;;;;;;;9.87;4.97;;;7.20;99.90;;;;;;4233343;27;20196;-82
2023/11/21 10:13:37;;;;;;;10.30;5.57;;;7.20;99.90;;;;;;4244647;27;20703;-82
2023/11/21 10:15:39;;;;;;;10.27;5.77;;;7.20;99.90;;;;;;4243157;27;20218;-81
2023/11/21 10:17:45;;;;;;;10.70;5.60;;;7.30;99.90;;;;;;4238132;27;20756;-81
2023/11/21 10:19:48;;;;;;;9.53;5.30;;;7.10;99.90;;;;;;4239072;27;20682;-80
2023/11/21 10:21:51;;;;;;;10.80;5.23;;;7.20;99.90;;;;;;4246856;27;20629;-80
2023/11/21 10:23:55;;;;;;;10.47;5.63;;;7.10;99.90;;;;;;4237365;27;20205;-82
2023/11/21 10:25:59;;;;;;;11.00;5.60;;;7.10;99.90;;;;;;4235221;27;20852;-81
2023/11/21 10:28:05;;;;;;;10.53;5.43;;;7.10;99.90;;;;;;4239055;27;20221;-81
2023/11/21 10:30:11;;;;;;;10.60;5.60;;;7.10;99.90;;;;;;4238606;27;21242;-79
2023/11/21 10:32:13;;;;;;;10.77;5.10;;;7.10;99.90;;;;;;4238700;27;20204;-79
2023/11/21 10:34:18;;;;;;;10.97;4.93;;;7.10;99.90;;;;;;4247420;27;20197;-79
2023/11/21 10:36:29;;;;;;;14.53;6.73;;;7.10;99.90;;;;;;4242516;27;20231;-80
2023/11/21 10:38:42;;;;;;;11.37;5.93;;;7.10;99.90;;;;;;4243519;27;20207;-79
2023/11/21 10:40:46;;;;;;;11.90;5.80;;;7.10;99.90;;;;;;4234043;28;20625;-81